createdAt,value
2023-01-26T00:00:09.578Z,21.07
2023-01-26T00:02:38.363Z,14.80
2023-01-26T00:05:08.742Z,15.87
2023-01-26T00:07:42.690Z,17.33
2023-01-26T00:10:12.334Z,18.53
2023-01-26T00:12:40.600Z,15.33
2023-01-26T00:15:09.508Z,12.97
2023-01-26T00:17:38.326Z,13.50
2023-01-26T00:20:13.673Z,12.57
2023-01-26T00:22:41.831Z,14.60
2023-01-26T00:25:10.639Z,16.13
2023-01-26T00:27:38.675Z,13.63
2023-01-26T00:30:12.277Z,14.70
2023-01-26T00:32:40.470Z,15.37
2023-01-26T00:35:10.607Z,11.90
2023-01-26T00:37:43.348Z,13.17
2023-01-26T00:40:12.862Z,12.27
2023-01-26T00:42:41.486Z,11.63
2023-01-26T00:45:10.746Z,14.50
2023-01-26T00:47:39.587Z,11.23
2023-01-26T00:50:11.050Z,15.53
2023-01-26T00:52:39.412Z,12.73
2023-01-26T00:55:08.339Z,14.87
2023-01-26T00:57:36.407Z,12.13
2023-01-26T01:00:06.165Z,12.73
2023-01-26T01:02:34.197Z,16.20
2023-01-26T01:05:02.227Z,15.80
2023-01-26T01:07:31.594Z,13.17
2023-01-26T01:10:02.081Z,16.23
2023-01-26T01:12:30.152Z,18.93
2023-01-26T01:14:58.238Z,16.87
2023-01-26T01:17:26.687Z,17.07
2023-01-26T01:19:54.702Z,17.90
2023-01-26T01:22:23.035Z,12.67
2023-01-26T01:24:52.422Z,11.90
2023-01-26T01:27:20.459Z,14.60
2023-01-26T01:29:50.376Z,13.40
2023-01-26T01:32:18.541Z,12.57
2023-01-26T01:34:48.381Z,13.10
2023-01-26T01:37:16.985Z,15.03
2023-01-26T01:39:45.062Z,16.37
2023-01-26T01:42:14.471Z,13.73
2023-01-26T01:44:44.765Z,13.40
2023-01-26T01:47:20.379Z,12.77
2023-01-26T01:49:51.899Z,14.37
2023-01-26T01:52:27.357Z,12.97
2023-01-26T01:55:02.081Z,13.60
2023-01-26T01:57:44.756Z,14.63
2023-01-26T02:00:16.422Z,16.37
2023-01-26T02:03:06.961Z,12.87
2023-01-26T02:05:41.277Z,13.23
2023-01-26T02:08:12.459Z,14.13
2023-01-26T02:10:40.828Z,12.80
2023-01-26T02:13:10.568Z,14.80
2023-01-26T02:15:39.300Z,13.07
2023-01-26T02:18:08.135Z,15.03
2023-01-26T02:20:46.110Z,14.67
2023-01-26T02:23:32.221Z,15.47
2023-01-26T02:26:11.387Z,12.80
2023-01-26T02:28:41.221Z,12.07
2023-01-26T02:31:10.857Z,12.20
2023-01-26T02:33:39.124Z,13.73
2023-01-26T02:36:17.010Z,12.60
2023-01-26T02:38:52.905Z,13.27
2023-01-26T02:41:36.332Z,14.20
2023-01-26T02:44:08.004Z,11.80
2023-01-26T02:46:36.263Z,11.47
2023-01-26T02:49:22.759Z,15.03
2023-01-26T02:51:50.858Z,9.93
2023-01-26T02:54:33.300Z,11.37
2023-01-26T02:57:03.778Z,11.27
2023-01-26T02:59:31.854Z,13.37
2023-01-26T03:02:00.170Z,14.00
2023-01-26T03:04:28.626Z,11.93
2023-01-26T03:06:56.787Z,11.47
2023-01-26T03:09:24.889Z,15.87
2023-01-26T03:11:53.213Z,13.37
2023-01-26T03:14:22.560Z,12.97
2023-01-26T03:16:50.847Z,13.53
2023-01-26T03:19:36.520Z,13.20
2023-01-26T03:22:28.975Z,11.23
2023-01-26T03:25:15.734Z,13.67
2023-01-26T03:27:47.966Z,10.70
2023-01-26T03:30:20.186Z,12.47
2023-01-26T03:32:50.079Z,13.10
2023-01-26T03:35:22.482Z,11.97
2023-01-26T03:37:54.551Z,9.50
2023-01-26T03:40:53.393Z,10.27
2023-01-26T03:43:39.616Z,15.00
2023-01-26T03:46:28.028Z,12.93
2023-01-26T03:49:13.830Z,10.70
2023-01-26T03:51:59.851Z,11.20
2023-01-26T03:54:45.555Z,10.83
2023-01-26T03:57:13.859Z,14.97
2023-01-26T03:59:42.244Z,10.77
2023-01-26T04:02:37.315Z,9.80
2023-01-26T04:05:24.615Z,9.97
2023-01-26T04:08:22.839Z,11.33
2023-01-26T04:10:57.499Z,12.50
2023-01-26T04:13:44.740Z,9.93
2023-01-26T04:16:38.741Z,13.40
2023-01-26T04:19:26.331Z,11.70
2023-01-26T04:21:54.357Z,12.50
2023-01-26T04:24:23.044Z,10.73
2023-01-26T04:26:55.608Z,12.23
2023-01-26T04:29:27.685Z,14.33
2023-01-26T04:31:56.414Z,14.37
2023-01-26T04:34:26.097Z,18.10
2023-01-26T04:36:54.536Z,14.23
2023-01-26T04:39:25.795Z,17.90
2023-01-26T04:41:56.872Z,14.57
2023-01-26T04:44:30.211Z,14.17
2023-01-26T04:46:58.900Z,15.60
2023-01-26T04:49:28.304Z,16.60
2023-01-26T04:51:56.764Z,15.37
2023-01-26T04:54:25.004Z,13.47
2023-01-26T04:56:53.693Z,17.23
2023-01-26T04:59:22.240Z,13.63
2023-01-26T05:01:50.276Z,17.50
2023-01-26T05:04:18.342Z,16.27
2023-01-26T05:06:49.414Z,15.73
2023-01-26T05:09:17.637Z,17.03
2023-01-26T05:11:47.186Z,19.67
2023-01-26T05:14:40.790Z,13.87
2023-01-26T05:17:19.194Z,11.97
2023-01-26T05:19:51.964Z,13.63
2023-01-26T05:22:38.884Z,13.13
2023-01-26T05:25:25.871Z,13.63
2023-01-26T05:28:00.553Z,14.93
2023-01-26T05:30:29.372Z,11.97
2023-01-26T05:33:02.927Z,14.10
2023-01-26T05:35:31.067Z,15.40
2023-01-26T05:38:01.141Z,10.40
2023-01-26T05:40:32.031Z,13.97
2023-01-26T05:43:00.900Z,11.13
2023-01-26T05:45:47.757Z,12.87
2023-01-26T05:48:17.115Z,12.43
2023-01-26T05:50:46.396Z,12.13
2023-01-26T05:53:24.559Z,12.83
2023-01-26T05:55:52.784Z,12.77
2023-01-26T05:58:23.876Z,16.23
2023-01-26T06:00:52.313Z,12.70
2023-01-26T06:03:26.120Z,15.83
2023-01-26T06:05:55.468Z,16.53
2023-01-26T06:08:50.778Z,10.47
2023-01-26T06:11:41.440Z,12.50
2023-01-26T06:14:15.749Z,12.23
2023-01-26T06:16:44.445Z,10.83
2023-01-26T06:19:13.061Z,13.07
2023-01-26T06:21:42.484Z,13.20
2023-01-26T06:24:12.219Z,14.43
2023-01-26T06:26:40.499Z,11.73
2023-01-26T06:29:08.963Z,12.67
2023-01-26T06:31:38.063Z,9.50
2023-01-26T06:34:07.141Z,11.53
2023-01-26T06:36:39.514Z,12.23
2023-01-26T06:39:12.398Z,13.63
2023-01-26T06:41:40.899Z,13.37
2023-01-26T06:44:10.099Z,16.80
2023-01-26T06:46:38.603Z,16.63
2023-01-26T06:49:07.220Z,15.77
2023-01-26T06:51:56.363Z,12.10
2023-01-26T06:54:34.698Z,11.50
2023-01-26T06:57:21.472Z,14.40
2023-01-26T07:00:02.302Z,13.70
2023-01-26T07:02:45.958Z,13.13
2023-01-26T07:05:14.050Z,13.90
2023-01-26T07:07:42.089Z,14.77
2023-01-26T07:10:13.228Z,11.80
2023-01-26T07:12:43.543Z,14.07
2023-01-26T07:15:13.847Z,12.97
2023-01-26T07:17:41.876Z,16.43
2023-01-26T07:20:12.188Z,12.60
2023-01-26T07:22:40.381Z,11.47
2023-01-26T07:25:12.974Z,16.00
2023-01-26T07:27:42.440Z,10.57
2023-01-26T07:30:13.825Z,10.60
2023-01-26T07:32:42.230Z,12.57
2023-01-26T07:35:13.642Z,14.67
2023-01-26T07:37:41.685Z,11.17
2023-01-26T07:40:11.776Z,13.47
2023-01-26T07:42:40.159Z,12.37
2023-01-26T07:45:23.686Z,12.80
2023-01-26T07:47:53.190Z,14.37
2023-01-26T07:50:21.724Z,13.93
2023-01-26T07:52:52.522Z,12.70
2023-01-26T07:55:21.438Z,15.70
2023-01-26T07:57:49.559Z,12.43
2023-01-26T08:00:19.294Z,12.33
2023-01-26T08:02:52.536Z,12.70
2023-01-26T08:05:20.560Z,11.87
2023-01-26T08:07:48.781Z,11.23
2023-01-26T08:10:17.438Z,11.50
2023-01-26T08:12:45.439Z,8.80
2023-01-26T08:15:13.612Z,9.97
2023-01-26T08:17:41.605Z,10.93
2023-01-26T08:20:14.158Z,9.57
2023-01-26T08:22:43.043Z,10.27
2023-01-26T08:25:15.594Z,9.63
2023-01-26T08:27:43.619Z,11.53
2023-01-26T08:30:13.873Z,9.83
2023-01-26T08:32:42.316Z,9.93
2023-01-26T08:35:11.913Z,11.17
2023-01-26T08:37:40.053Z,11.10
2023-01-26T08:40:10.714Z,10.83
2023-01-26T08:42:38.897Z,10.20
2023-01-26T08:45:08.105Z,8.67
2023-01-26T08:47:36.201Z,8.70
2023-01-26T08:50:05.087Z,10.37
2023-01-26T08:52:34.433Z,9.37
2023-01-26T08:55:03.275Z,12.10
2023-01-26T08:57:31.275Z,9.90
2023-01-26T08:59:59.342Z,12.83
2023-01-26T09:02:27.416Z,8.23
2023-01-26T09:04:55.557Z,7.60
2023-01-26T09:07:23.603Z,12.60
2023-01-26T09:09:52.987Z,11.93
2023-01-26T09:12:21.029Z,8.93
2023-01-26T09:14:49.037Z,10.07
2023-01-26T09:17:18.205Z,11.87
2023-01-26T09:19:46.225Z,9.80
2023-01-26T09:22:14.315Z,12.03
2023-01-26T09:24:42.335Z,11.43
2023-01-26T09:27:11.719Z,9.67
2023-01-26T09:29:39.730Z,8.83
2023-01-26T09:32:07.785Z,9.37
2023-01-26T09:34:35.859Z,12.00
2023-01-26T09:37:03.899Z,9.40
2023-01-26T09:39:31.891Z,10.53
2023-01-26T09:42:28.300Z,9.33
2023-01-26T09:45:08.136Z,11.57
2023-01-26T09:48:03.869Z,9.90
2023-01-26T09:50:37.173Z,10.93
2023-01-26T09:53:13.795Z,8.53
2023-01-26T09:55:43.256Z,11.47
2023-01-26T09:58:20.661Z,10.30
2023-01-26T10:00:51.652Z,7.97
2023-01-26T10:03:27.823Z,9.00
2023-01-26T10:06:01.932Z,9.30
2023-01-26T10:09:07.629Z,9.60
2023-01-26T10:11:41.165Z,11.20
2023-01-26T10:14:16.623Z,11.80
2023-01-26T10:16:48.186Z,11.47
2023-01-26T10:19:26.808Z,13.63
2023-01-26T10:22:00.145Z,10.37
2023-01-26T10:24:28.835Z,10.93
2023-01-26T10:26:59.137Z,11.00
2023-01-26T10:29:28.602Z,10.03
2023-01-26T10:31:56.690Z,10.00
2023-01-26T10:34:27.432Z,11.07
2023-01-26T10:37:03.239Z,10.27
2023-01-26T10:39:31.260Z,9.33
2023-01-26T10:42:01.754Z,12.63
2023-01-26T10:44:35.740Z,11.60
2023-01-26T10:47:07.868Z,11.43
2023-01-26T10:49:35.940Z,12.37
2023-01-26T10:52:15.593Z,10.43
2023-01-26T10:54:44.698Z,11.93
2023-01-26T10:57:29.019Z,11.70
2023-01-26T11:00:01.513Z,14.17
2023-01-26T11:02:32.066Z,14.87
2023-01-26T11:05:21.706Z,12.57
2023-01-26T11:07:54.237Z,11.97
2023-01-26T11:10:31.573Z,10.63
2023-01-26T11:13:18.101Z,13.07
2023-01-26T11:15:50.263Z,14.97
2023-01-26T11:18:33.756Z,12.13
2023-01-26T11:21:08.278Z,12.57
2023-01-26T11:23:50.164Z,14.77
2023-01-26T11:26:53.171Z,13.37
2023-01-26T11:29:52.814Z,14.73
2023-01-26T11:32:35.898Z,15.23
2023-01-26T11:35:17.058Z,14.80
2023-01-26T11:37:48.589Z,15.53
2023-01-26T11:40:32.051Z,13.80
2023-01-26T11:43:28.263Z,14.30
2023-01-26T11:46:26.741Z,12.90
2023-01-26T11:49:13.313Z,14.00
2023-01-26T11:51:58.092Z,14.47
2023-01-26T11:54:45.313Z,11.93
2023-01-26T11:57:27.664Z,10.67
2023-01-26T12:00:04.022Z,10.77
2023-01-26T12:02:43.219Z,9.93
2023-01-26T12:05:20.877Z,14.30
2023-01-26T12:07:57.000Z,14.47
2023-01-26T12:10:30.744Z,15.20
2023-01-26T12:13:09.043Z,13.30
2023-01-26T12:15:40.633Z,13.10
2023-01-26T12:18:19.343Z,13.40
2023-01-26T12:20:56.584Z,14.60
2023-01-26T12:23:36.639Z,17.40
2023-01-26T12:26:11.752Z,11.20
2023-01-26T12:28:48.934Z,14.00
2023-01-26T12:31:24.793Z,14.10
2023-01-26T12:33:56.902Z,13.43
2023-01-26T12:36:49.065Z,16.83
2023-01-26T12:39:27.356Z,14.13
2023-01-26T12:42:19.732Z,11.97
2023-01-26T12:44:54.196Z,13.83
2023-01-26T12:47:31.624Z,22.97
2023-01-26T12:50:05.356Z,16.70
2023-01-26T12:52:43.491Z,15.17
2023-01-26T12:55:17.876Z,13.70
2023-01-26T12:57:52.667Z,13.37
2023-01-26T13:00:25.480Z,14.60
2023-01-26T13:02:57.766Z,12.13
2023-01-26T13:05:30.342Z,12.77
2023-01-26T13:07:59.977Z,11.90
2023-01-26T13:10:44.034Z,13.13
2023-01-26T13:13:31.549Z,11.30
2023-01-26T13:16:34.760Z,11.83
2023-01-26T13:19:03.766Z,13.47
2023-01-26T13:21:44.865Z,15.90
2023-01-26T13:24:46.977Z,14.80
2023-01-26T13:27:33.792Z,17.87
2023-01-26T13:30:02.212Z,19.03
2023-01-26T13:33:09.924Z,13.07
2023-01-26T13:35:39.001Z,15.20
2023-01-26T13:38:19.040Z,14.70
2023-01-26T13:40:50.873Z,15.03
2023-01-26T13:43:29.201Z,14.17
2023-01-26T13:46:18.699Z,14.33
2023-01-26T13:48:49.805Z,14.17
2023-01-26T13:51:21.640Z,13.50
2023-01-26T13:53:59.909Z,12.37
2023-01-26T13:56:33.692Z,14.23
2023-01-26T13:59:11.895Z,12.63
2023-01-26T14:01:45.909Z,15.00
2023-01-26T14:04:20.125Z,15.63
2023-01-26T14:06:53.658Z,19.53
2023-01-26T14:09:21.995Z,14.50
2023-01-26T14:11:59.560Z,13.07
2023-01-26T14:14:30.877Z,12.87
2023-01-26T14:16:59.771Z,18.93
2023-01-26T14:19:29.495Z,14.37
2023-01-26T14:22:00.062Z,17.83
2023-01-26T14:24:36.103Z,19.17
2023-01-26T14:27:05.525Z,18.00
2023-01-26T14:29:40.217Z,16.63
2023-01-26T14:32:17.381Z,15.83
2023-01-26T14:34:54.037Z,17.67
2023-01-26T14:37:22.526Z,16.43
2023-01-26T14:39:51.280Z,16.90
2023-01-26T14:42:22.101Z,15.07
2023-01-26T14:44:50.147Z,12.80
2023-01-26T14:47:22.783Z,18.73
2023-01-26T14:49:57.275Z,19.20
2023-01-26T14:52:28.596Z,19.80
2023-01-26T14:55:00.390Z,19.33
2023-01-26T14:57:31.827Z,14.90
2023-01-26T15:00:02.548Z,12.90
2023-01-26T15:02:38.058Z,16.70
2023-01-26T15:05:16.987Z,17.23
2023-01-26T15:07:47.191Z,21.13
2023-01-26T15:10:36.672Z,13.20
2023-01-26T15:13:19.284Z,17.83
2023-01-26T15:15:49.644Z,13.13
2023-01-26T15:18:22.213Z,13.77
2023-01-26T15:21:00.716Z,14.50
2023-01-26T15:23:31.906Z,14.10
2023-01-26T15:26:08.210Z,13.33
2023-01-26T15:28:38.782Z,13.03
2023-01-26T15:31:08.182Z,15.70
2023-01-26T15:33:45.216Z,13.17
2023-01-26T15:36:34.520Z,11.53
2023-01-26T15:39:13.114Z,9.40
2023-01-26T15:41:41.696Z,9.90
2023-01-26T15:44:17.081Z,9.57
2023-01-26T15:46:45.884Z,9.63
2023-01-26T15:49:14.546Z,10.60
2023-01-26T15:51:42.771Z,8.00
2023-01-26T15:54:12.313Z,11.53
2023-01-26T15:56:40.403Z,11.00
2023-01-26T15:59:08.398Z,10.70
2023-01-26T16:01:37.881Z,11.93
2023-01-26T16:04:06.250Z,14.10
2023-01-26T16:06:35.854Z,9.97
2023-01-26T16:09:04.038Z,10.27
2023-01-26T16:11:36.094Z,11.30
2023-01-26T16:14:04.599Z,8.73
2023-01-26T16:16:33.682Z,11.03
2023-01-26T16:19:03.060Z,10.53
2023-01-26T16:21:39.442Z,11.20
2023-01-26T16:24:11.052Z,9.73
2023-01-26T16:26:39.208Z,10.53
2023-01-26T16:29:08.048Z,8.90
2023-01-26T16:31:36.813Z,7.73
2023-01-26T16:34:06.253Z,7.67
2023-01-26T16:36:34.431Z,8.07
2023-01-26T16:39:03.072Z,8.17
2023-01-26T16:41:33.580Z,9.40
2023-01-26T16:44:03.869Z,8.33
2023-01-26T16:46:32.137Z,8.30
2023-01-26T16:49:00.281Z,8.20
2023-01-26T16:51:33.519Z,7.53
2023-01-26T16:54:01.637Z,6.90
2023-01-26T16:56:29.825Z,6.87
2023-01-26T16:58:57.936Z,9.83
2023-01-26T17:01:28.743Z,5.53
2023-01-26T17:03:57.591Z,7.83
2023-01-26T17:06:25.994Z,8.23
2023-01-26T17:08:56.567Z,9.17
2023-01-26T17:11:28.113Z,9.67
2023-01-26T17:13:56.957Z,10.73
2023-01-26T17:16:27.047Z,9.20
2023-01-26T17:18:55.182Z,9.57
2023-01-26T17:21:24.009Z,8.17
2023-01-26T17:23:53.876Z,8.23
2023-01-26T17:26:23.635Z,6.13
2023-01-26T17:28:55.740Z,7.80
2023-01-26T17:31:25.798Z,8.00
2023-01-26T17:33:55.592Z,9.47
2023-01-26T17:36:24.770Z,8.47
2023-01-26T17:38:53.266Z,12.13
2023-01-26T17:41:22.907Z,8.40
2023-01-26T17:43:51.318Z,10.50
2023-01-26T17:46:22.328Z,12.00
2023-01-26T17:48:51.107Z,12.63
2023-01-26T17:54:14.005Z,10.63
2023-01-26T17:56:43.868Z,12.30
2023-01-26T17:59:12.037Z,12.03
2023-01-26T18:01:40.139Z,14.67
2023-01-26T18:04:08.235Z,9.23
2023-01-26T18:06:38.508Z,12.00
2023-01-26T18:09:06.750Z,10.00
2023-01-26T18:11:34.773Z,11.23
2023-01-26T18:14:05.487Z,13.03
2023-01-26T18:16:37.736Z,10.67
2023-01-26T18:19:30.776Z,9.90
2023-01-26T18:21:58.827Z,11.07
2023-01-26T18:24:27.037Z,12.40
2023-01-26T18:26:55.233Z,11.07
2023-01-26T18:29:24.685Z,9.03
2023-01-26T18:31:52.793Z,10.53
2023-01-26T18:34:20.902Z,12.33
2023-01-26T18:36:48.982Z,11.20
2023-01-26T18:39:17.659Z,11.47
2023-01-26T18:41:45.677Z,9.07
2023-01-26T18:44:13.690Z,10.93
2023-01-26T18:46:43.183Z,10.30
2023-01-26T18:49:11.572Z,9.97
2023-01-26T18:51:39.628Z,12.63
2023-01-26T18:54:09.571Z,12.50
2023-01-26T18:56:38.138Z,10.13
2023-01-26T18:59:07.544Z,11.93
2023-01-26T19:01:35.969Z,12.57
2023-01-26T19:04:07.172Z,12.90
2023-01-26T19:06:36.281Z,11.00
2023-01-26T19:09:08.109Z,12.93
2023-01-26T19:11:38.946Z,13.63
2023-01-26T19:14:10.172Z,12.97
2023-01-26T19:16:38.478Z,14.17
2023-01-26T19:19:08.148Z,11.53
2023-01-26T19:21:36.173Z,16.90
2023-01-26T19:24:06.048Z,14.10
2023-01-26T19:26:34.518Z,12.43
2023-01-26T19:29:02.645Z,13.10
2023-01-26T19:31:31.991Z,13.67
2023-01-26T19:34:02.450Z,14.00
2023-01-26T19:36:34.438Z,12.30
2023-01-26T19:39:03.322Z,11.40
2023-01-26T19:41:31.858Z,11.57
2023-01-26T19:44:00.826Z,12.47
2023-01-26T19:46:29.014Z,12.13
2023-01-26T19:48:57.088Z,11.53
2023-01-26T19:51:27.191Z,12.40
2023-01-26T19:53:58.736Z,11.40
2023-01-26T19:56:29.356Z,13.13
2023-01-26T19:58:59.890Z,11.33
2023-01-26T20:01:30.136Z,11.53
2023-01-26T20:04:01.392Z,11.20
2023-01-26T20:06:32.345Z,14.07
2023-01-26T20:09:03.434Z,14.70
2023-01-26T20:11:32.431Z,12.10
2023-01-26T20:14:03.016Z,14.37
2023-01-26T20:16:31.992Z,13.43
2023-01-26T20:19:00.482Z,13.47
2023-01-26T20:21:29.211Z,15.57
2023-01-26T20:23:57.377Z,14.00
2023-01-26T20:26:28.433Z,12.00
2023-01-26T20:28:58.434Z,13.73
2023-01-26T20:31:27.595Z,11.30
2023-01-26T20:33:58.187Z,11.27
2023-01-26T20:36:29.220Z,13.37
2023-01-26T20:38:57.961Z,14.83
2023-01-26T20:41:30.021Z,15.47
2023-01-26T20:44:02.032Z,12.43
2023-01-26T20:46:33.188Z,12.63
2023-01-26T20:49:01.514Z,13.83
2023-01-26T20:51:33.605Z,12.73
2023-01-26T20:54:03.040Z,14.83
2023-01-26T20:56:32.501Z,16.30
2023-01-26T20:59:03.522Z,13.43
2023-01-26T21:01:33.685Z,15.93
2023-01-26T21:04:02.326Z,15.10
2023-01-26T21:06:31.277Z,14.10
2023-01-26T21:09:02.234Z,14.17
2023-01-26T21:11:33.171Z,15.03
2023-01-26T21:14:26.587Z,14.67
2023-01-26T21:16:54.694Z,16.17
2023-01-26T21:19:22.803Z,14.27
2023-01-26T21:21:51.258Z,13.87
2023-01-26T21:24:19.372Z,16.03
2023-01-26T21:26:50.233Z,13.90
2023-01-26T21:29:18.279Z,15.50
2023-01-26T21:31:48.699Z,15.27
2023-01-26T21:34:16.756Z,15.47
2023-01-26T21:36:44.867Z,14.70
2023-01-26T21:39:15.458Z,17.20
2023-01-26T21:41:59.274Z,20.30
2023-01-26T21:44:30.470Z,14.10
2023-01-26T21:47:00.519Z,18.07
2023-01-26T21:49:29.465Z,15.47
2023-01-26T21:52:15.453Z,15.13
2023-01-26T21:54:43.491Z,16.00
2023-01-26T21:57:30.658Z,17.43
2023-01-26T22:00:00.113Z,16.03
2023-01-26T22:02:28.396Z,15.30
2023-01-26T22:04:56.675Z,14.73
2023-01-26T22:07:24.645Z,14.30
2023-01-26T22:09:52.651Z,19.03
2023-01-26T22:12:22.858Z,14.33
2023-01-26T22:14:52.570Z,14.13
2023-01-26T22:17:21.932Z,14.73
2023-01-26T22:19:49.959Z,12.37
2023-01-26T22:22:17.982Z,15.73
2023-01-26T22:24:45.964Z,15.20
2023-01-26T22:27:13.961Z,13.20
2023-01-26T22:29:41.957Z,11.27
2023-01-26T22:32:09.946Z,14.57
2023-01-26T22:34:39.317Z,14.97
2023-01-26T22:37:07.311Z,14.10
2023-01-26T22:39:35.355Z,12.33
2023-01-26T22:42:03.312Z,13.87
2023-01-26T22:44:31.365Z,13.93
2023-01-26T22:46:59.343Z,13.63
2023-01-26T22:49:27.337Z,15.57
2023-01-26T22:51:56.874Z,13.93
2023-01-26T22:54:25.985Z,14.07
2023-01-26T22:56:54.282Z,16.17
2023-01-26T22:59:22.334Z,12.43
2023-01-26T23:01:51.307Z,16.07
2023-01-26T23:04:19.399Z,14.93
2023-01-26T23:06:47.471Z,13.63
2023-01-26T23:09:16.853Z,18.83
2023-01-26T23:11:44.887Z,15.17
2023-01-26T23:14:12.913Z,17.57
2023-01-26T23:16:40.954Z,19.63
2023-01-26T23:19:09.358Z,16.83
2023-01-26T23:21:37.431Z,15.60
2023-01-26T23:24:06.069Z,15.50
2023-01-26T23:26:35.573Z,16.50
2023-01-26T23:29:03.662Z,16.43
2023-01-26T23:31:32.517Z,16.63
2023-01-26T23:34:00.846Z,18.90
2023-01-26T23:36:28.971Z,18.83
2023-01-26T23:38:56.971Z,16.70
2023-01-26T23:41:24.986Z,16.47
2023-01-26T23:43:54.392Z,17.10
2023-01-26T23:46:22.496Z,18.47
2023-01-26T23:48:50.523Z,17.33
2023-01-26T23:51:18.556Z,21.50
2023-01-26T23:53:46.578Z,16.47
2023-01-26T23:56:17.417Z,16.53
2023-01-26T23:58:45.745Z,18.17
